Historyczne dane pomiarowe

Dodano dane terminowe – wersja testowa.

Dane z okresu 1951-2019

Wersja bazy: 1.34 [2019-03-16, lista zmian], aktualizacja planowana na 2019-04-15

Dane meteo z obszaru Polski uzyskane na podstawie danych udostępnionych przez Instytut Meteorologii i Gospodarki Wodnej – Państwowy Instytut Badawczy.

 

Wybierz Datę:    

       

TemperaturaWilgotnośćWiatrCiśnienieOpadyŚniegCzas trwania zjawisk
 Stacja t tx tn tng RH VA  wxwx mslp ppp RRR   cm mm wxwxwxwxwxwxwx
2019-08-31 21.1 29.3 15.4 14.6 76.5 18.4- 1.3--1020.2 985.8 0.0 0.0 0.0x- 10.3-------
2019-08-30 20.9 28.8 15.5 14.3 76.4 18.3- 1.5--1021.9 987.5 0.7 0.7 0.0x- 9.3-------
2019-08-29 21.9 31.8 15.3 14.1 71.9 17.7- 1.0--1019.2 985.0 0.0 0.0 0.0x- 8.7-------
2019-08-28 20.9 31.6 15.4 14.0 77.5 18.5- 1.0--1020.4 986.0 1.3 1.2 0.1x- 8.2-------
2019-08-27 22.9 31.6 16.5 14.6 68.6 18.2- 1.5--1020.9 986.7 0.0 0.0 0.0x- 12.1-------
2019-08-26 22.3 30.5 15.9 14.1 74.4 19.2- 0.9--1021.4 987.2 0.1 0.1 0.0x- 9.5-------
2019-08-25 20.7 28.8 14.1 12.9 78.1 18.7- 1.5--1022.3 987.8 0.0 0.0 0.0x- 8.7-------
2019-08-24 19.8 26.6 15.2 14.3 76.4 17.1- 1.0--1024.4 989.7 0.0 0.0 0.0x- 9.4-------
2019-08-23 17.7 23.7 13.2 12.9 81.9 16.2- 1.0--1026.8 991.9 0.0 0.0 0.0x- 4.6-------
2019-08-22 16.2 20.8 13.4 11.8 78.6 14.3- 1.6--1028.4 993.2 1.7 1.6 0.1x- 5.3-------
2019-08-21 17.9--- 84.4 17.4- 1.5--1024.3 989.4 0.0 0.0 0.0x- 2.2-------
2019-08-20 21.8 28.5 16.7 15.1 79.3 20.4- 1.4--1020.2 985.9 0.0 0.0 0.0x- 9.0-------
2019-08-19 23.3 32.6 15.6 13.5 67.1 18.4- 1.4--1015.6 981.7 0.0 0.0 0.0x- 11.0-------
2019-08-18 20.2 27.8 13.9 12.4 72.8 16.9- 1.0--1013.8 979.6 0.0 0.0 0.0x- 5.4-------
2019-08-17 17.8 24.9 12.1 11.1 76.1 15.0- 0.9--1016.5 981.9 0.0 0.0 0.0x- 7.1-------
2019-08-16 16.1 23.1 9.3 8.5 75.8 13.5- 0.9--1016.6 981.8 11.7 0.0 11.7x- 7.6-------
2019-08-15 14.9 22.3 8.7 8.0 70.0 11.1- 1.0--1017.4 982.4 0.0 0.0 0.0x- 10.5-------
2019-08-14 14.6 18.9 13.5 12.9 88.1 14.7- 1.3--1016.4 981.5 6.3 6.3 0.0x- 1.7-------
2019-08-13 18.9 27.2 16.9 16.6 85.8 18.6- 1.5--1015.7 981.2 17.1 2.9 14.2x- 1.3-------
2019-08-12 24.4 32.1 16.2 15.0 69.9 20.5- 1.6--1013.3 979.5 10.2 0.0 10.2x- 10.2-------
2019-08-11 21.9 26.7 18.4 18.3 71.8 18.1- 0.9--1018.0 983.8 0.0 0.0 0.0x- 10.5-------
2019-08-10 21.3 32.1 13.4 11.7 74.0 18.3- 1.1--1014.8 980.7 36.6 0.0 36.6x- 7.5-------
2019-08-09 20.4 27.9 13.0 11.3 65.0 14.5- 1.1--1014.5 980.2 0.0 0.0 0.0x- 10.9-------
2019-08-08 20.5 25.8 17.1 16.4 71.0 16.6- 1.9--1011.4 977.3 0.0 0.0 0.0x- 7.8-------
2019-08-07 22.6 29.6 16.9 15.0 70.4 18.8- 1.4--1009.2 975.4 17.0 1.8 15.2x- 8.7-------
2019-08-06 21.3 28.2 15.5 14.2 64.9 16.0- 1.4--1012.3 978.2 0.1 0.1 0.0x- 8.3-------
2019-08-05 20.2 27.2 13.7 12.5 57.5 12.8- 1.8--1013.6 979.3 0.1 0.0 0.1x- 11.4-------
2019-08-04 17.5 23.6 12.4 10.6 64.5 12.4- 1.8--1014.1 979.5 0.3 0.2 0.1x- 8.4-------
2019-08-03 17.8 22.5 14.1 11.8 69.4 13.8- 1.5--1011.1 976.7 0.0 0.0 0.0x- 6.0-------
2019-08-02 19.4 25.8 13.6 12.0 70.8 15.3- 1.4--1013.2 978.9 0.0 0.0 0.0x- 10.2-------
2019-08-01 19.5 25.3 16.7 15.2 78.8 17.6- 1.4--1014.8 980.5 1.2 0.0 1.2x- 3.0-------
2019-07-31 21.4 25.8 18.6 18.7 81.6 20.7- 1.3--1012.2 978.2 1.9 0.3 0.0x- 2.2-------
2019-07-30 23.4 30.6 18.6 18.4 68.5 19.2- 2.1--1007.9 974.3 0.9 0.9 0.0x- 9.8-------
2019-07-29 24.0 32.2 18.5 18.7 62.3 17.9- 2.0--1005.2 971.7 0.0 0.0 0.0x- 10.9-------
2019-07-28 24.2 32.1 16.4 15.4 61.8 17.6- 2.0--1003.8 970.4 0.0 0.0 0.0x- 10.9-------
2019-07-27 20.9 25.8 15.2 15.3 70.9 17.0- 1.4--1006.6 972.7 0.0 0.0 0.0x- 7.0-------
2019-07-26 22.0--- 65.4 16.5----1011.4 977.5 0.0 0.0 0.0x- 10.0-------
2019-07-25 21.5 28.7 14.6 14.2 67.6 16.1- 0.9--1018.4 984.2 0.0 0.0 0.0x- 12.0-------
2019-07-24 19.0 23.1 16.6 16.7 83.5 18.3- 1.1--1019.2 984.6 0.2 0.2 0.0x- 2.7-------
2019-07-23 17.2 22.2 16.3 16.1 87.0 17.0- 1.0--1020.6 985.8 0.4 0.3 0.1x- 0.0-------
2019-07-22 20.0 26.5 13.9 12.2 70.8 15.8- 0.9--1021.7 987.2 0.8 0.0 0.8x- 9.4-------
2019-07-21 20.2 31.0 16.8 15.3 79.3 18.2- 1.8--1018.7 984.3 14.3 14.2 0.1x- 4.7-------
2019-07-20 20.2 27.1 15.6 15.0 70.6 16.7- 1.3--1017.5 983.1 1.1 1.1 0.0x- 4.8-------
2019-07-19 19.2 28.5 9.5 7.6 60.9 12.6- 0.9--1015.7 981.3 0.0 0.0 0.0x- 10.7-------
2019-07-18 17.6 24.4 9.8 7.9 60.5 11.3- 1.0--1013.8 979.3 0.0 0.0 0.0x- 9.9-------
2019-07-17 16.9 21.5 11.5 9.6 58.6 10.9- 2.6--1012.6 978.0 0.0 0.0 0.0x- 6.0-------
2019-07-16 16.0 23.1 7.9 6.1 62.5 11.1- 1.6--1013.0 978.3 0.0 0.0 0.0x- 10.7-------
2019-07-15 16.2 23.3 8.4 6.6 60.5 10.2- 1.1--1013.6 978.9 0.0 0.0 0.0x- 13.7-------
2019-07-14 15.5 20.5 14.2 13.1 81.1 14.1- 1.1--1012.2 977.5 0.1 0.1 0.0x- 3.4-------
2019-07-13 16.6 23.1 13.7 13.1 70.8 13.2- 1.1--1010.0 975.5 4.1 0.0 4.1x- 1.5-------
2019-07-12 16.7 24.5 6.2 4.2 57.3 9.8- 0.9--1011.9 977.3 0.0 0.0 0.0x- 11.0-------
2019-07-11 14.3 18.9 10.0 7.8 69.0 11.0- 1.5--1013.0 978.1 5.8 5.8 0.0x- 6.6-------
2019-07-10 15.3 21.0 11.7 8.7 55.8 9.5- 2.9--1013.9 979.1 0.4 0.0 0.4x- 6.1-------
2019-07-09 14.6 20.6 7.6 5.3 51.8 8.2- 2.3--1014.6 979.6 0.0 0.0 0.0x- 7.9-------
2019-07-08 16.7 20.5 13.0 11.7 44.9 8.3- 3.1--1013.3 978.7 0.0 0.0 0.0x- 11.7-------
2019-07-07 19.6 26.6 15.5 13.4 60.9 13.7- 1.5--1006.8 972.7 0.0 0.0 0.0x- 7.0-------
2019-07-06 21.5 29.1 15.3 14.7 49.4 11.9- 1.6--1010.1 976.1 0.0 0.0 0.0x- 7.7-------
2019-07-05 17.5 24.6 8.4 6.6 57.4 10.9- 1.4--1014.6 980.0 0.0 0.0 0.0x- 5.9-------
2019-07-04 16.5 23.7 7.7 5.7 53.0 9.1- 1.1--1020.8 985.9 0.0 0.0 0.0x- 15.1-------
2019-07-03 17.8 23.3 11.9 9.7 53.3 10.2- 1.9--1019.3 984.6 0.0 0.0 0.0x- 15.2-------
61.6 ms

 

Źródłem pochodzenia danych jest Instytut Meteorologii i Gospodarki Wodnej – Państwowy Instytut Badawczy. Dane Instytutu Meteorologii i Gospodarki Wodnej – Państwowego Instytutu Badawczego zostały przetworzone.

Dane źródłowe można odnaleźć na stronie https://dane.imgw.pl